Centennial, Wyoming
Current Conditions -  °F | °C
As of 9:53 AM on Friday 28 Nov 2014 (Local Time) from KLAR Reporting Station
Clear Clear  
Wind Chill: 41°   Ceiling: Unl
Heat Index: 47°   Visibility: 10mi
Dew Point: 13°   Wind: 13mph
Humidity: 25%   Direction: 240°WSW
Pressure: 30.02"   Gusts: NA
Location:  41.3°N, 106.14°W
Report Text: KLAR 281653Z AUTO 24011KT 10SM CLR 08/M11 A3002 RMK AO2 SLP111 T00831106
Loading
Personal Weather Stations






























Interactive Weather Map New forecast layout! Learn more

10-Day Weather Forecast

Advertisements
Track Severe Weather on mobile